createdAt,value
2023-03-31T00:01:45.974Z,35.42
2023-03-31T00:06:54.333Z,35.47
2023-03-31T00:11:57.696Z,35.63
2023-03-31T00:17:02.302Z,35.05
2023-03-31T00:22:06.681Z,35.65
2023-03-31T00:27:11.370Z,35.45
2023-03-31T00:32:15.352Z,36.00
2023-03-31T00:37:19.814Z,35.40
2023-03-31T00:42:22.925Z,35.55
2023-03-31T00:47:28.040Z,35.25
2023-03-31T00:52:37.657Z,35.47
2023-03-31T00:57:43.134Z,35.40
2023-03-31T01:02:52.544Z,35.70
2023-03-31T01:08:00.355Z,35.72
2023-03-31T01:13:04.791Z,34.95
2023-03-31T01:18:11.453Z,35.17
2023-03-31T01:23:37.320Z,35.40
2023-03-31T01:28:45.854Z,35.00
2023-03-31T01:34:23.324Z,35.30
2023-03-31T01:40:14.369Z,35.22
2023-03-31T01:45:27.446Z,34.95
2023-03-31T01:50:36.824Z,34.83
2023-03-31T01:55:43.465Z,35.25
2023-03-31T02:00:51.879Z,35.55
2023-03-31T02:05:58.367Z,35.03
2023-03-31T02:11:01.630Z,35.20
2023-03-31T02:16:11.702Z,35.67
2023-03-31T02:21:16.452Z,35.17
2023-03-31T02:26:24.437Z,35.40
2023-03-31T02:31:37.431Z,35.50
2023-03-31T02:36:45.411Z,35.35
2023-03-31T02:41:50.686Z,36.05
2023-03-31T02:46:56.729Z,35.95
2023-03-31T02:52:26.106Z,35.60
2023-03-31T02:57:49.934Z,36.78
2023-03-31T03:03:07.961Z,36.50
2023-03-31T03:08:22.469Z,35.55
2023-03-31T03:13:36.723Z,35.25
2023-03-31T03:18:41.277Z,35.92
2023-03-31T03:23:44.239Z,36.00
2023-03-31T03:28:47.101Z,35.47
2023-03-31T03:33:51.923Z,35.78
2023-03-31T03:38:54.800Z,35.47
2023-03-31T03:43:57.731Z,35.53
2023-03-31T03:49:02.173Z,35.55
2023-03-31T03:54:05.235Z,35.85
2023-03-31T03:59:08.182Z,36.08
2023-03-31T04:04:12.407Z,36.15
2023-03-31T04:09:15.528Z,35.42
2023-03-31T04:14:18.455Z,36.05
2023-03-31T04:19:25.815Z,36.28
2023-03-31T04:24:30.789Z,36.85
2023-03-31T04:29:37.143Z,36.33
2023-03-31T04:34:46.426Z,37.72
2023-03-31T04:39:50.560Z,37.10
2023-03-31T04:44:53.466Z,36.97
2023-03-31T04:49:57.664Z,36.17
2023-03-31T04:55:00.712Z,37.35
2023-03-31T05:00:07.270Z,36.15
2023-03-31T05:05:12.234Z,36.85
2023-03-31T05:10:15.426Z,36.55
2023-03-31T05:15:18.581Z,36.70
2023-03-31T05:20:22.951Z,36.13
2023-03-31T05:25:26.136Z,36.78
2023-03-31T05:30:29.737Z,36.70
2023-03-31T05:35:34.062Z,37.60
2023-03-31T05:40:37.040Z,36.80
2023-03-31T05:45:40.087Z,36.70
2023-03-31T05:50:44.367Z,36.55
2023-03-31T05:55:47.234Z,36.10
2023-03-31T06:00:50.150Z,36.38
2023-03-31T06:05:55.775Z,36.63
2023-03-31T06:10:58.784Z,37.47
2023-03-31T06:16:02.681Z,37.03
2023-03-31T06:21:07.990Z,37.40
2023-03-31T06:26:13.992Z,36.30
2023-03-31T06:31:19.017Z,35.50
2023-03-31T06:36:23.816Z,35.22
2023-03-31T06:41:27.341Z,35.03
2023-03-31T06:46:30.366Z,34.78
2023-03-31T06:51:34.776Z,35.20
2023-03-31T06:56:37.799Z,34.78
2023-03-31T07:01:42.482Z,35.95
2023-03-31T07:06:46.909Z,34.92
2023-03-31T07:11:50.213Z,34.65
2023-03-31T07:16:53.227Z,34.50
2023-03-31T07:21:57.582Z,34.08
2023-03-31T07:27:00.490Z,34.17
2023-03-31T07:32:03.428Z,34.28
2023-03-31T07:37:07.864Z,34.45
2023-03-31T07:42:10.814Z,34.35
2023-03-31T07:47:13.765Z,34.63
2023-03-31T07:52:19.726Z,34.30
2023-03-31T07:57:22.716Z,34.45
2023-03-31T08:02:26.159Z,34.13
2023-03-31T08:07:31.253Z,34.53
2023-03-31T08:12:34.221Z,34.47
2023-03-31T08:17:37.202Z,34.42
2023-03-31T08:22:42.302Z,34.40
2023-03-31T08:27:46.694Z,35.17
2023-03-31T08:32:49.578Z,34.38
2023-03-31T08:37:53.871Z,34.88
2023-03-31T08:43:02.221Z,34.35
2023-03-31T08:48:09.104Z,34.50
2023-03-31T08:53:23.936Z,34.28
2023-03-31T08:58:39.401Z,34.30
2023-03-31T09:03:49.498Z,34.47
2023-03-31T09:09:02.757Z,34.55
2023-03-31T09:14:18.831Z,35.30
2023-03-31T09:19:37.557Z,34.35
2023-03-31T09:24:52.003Z,33.95
2023-03-31T09:29:58.796Z,34.08
2023-03-31T09:35:13.082Z,34.53
2023-03-31T09:40:19.615Z,34.42
2023-03-31T09:45:22.573Z,34.67
2023-03-31T09:50:26.538Z,34.55
2023-03-31T09:55:42.900Z,34.85
2023-03-31T10:00:59.421Z,35.03
2023-03-31T10:06:10.286Z,34.42
2023-03-31T10:11:14.909Z,35.03
2023-03-31T10:16:23.820Z,34.42
2023-03-31T10:21:29.477Z,34.78
2023-03-31T10:26:33.878Z,34.97
2023-03-31T10:31:38.735Z,34.15
2023-03-31T10:36:52.412Z,34.00
2023-03-31T10:41:56.641Z,33.63
2023-03-31T10:47:06.908Z,33.17
2023-03-31T10:52:19.783Z,33.63
2023-03-31T10:57:36.821Z,33.20
2023-03-31T11:03:02.643Z,33.33
2023-03-31T11:08:23.705Z,33.33
2023-03-31T11:13:36.652Z,33.75
2023-03-31T11:18:59.420Z,33.42
2023-03-31T11:24:09.890Z,33.60
2023-03-31T11:29:27.869Z,33.53
2023-03-31T11:34:59.753Z,34.35
2023-03-31T11:40:18.612Z,37.33
2023-03-31T11:45:27.231Z,37.58
2023-03-31T11:50:34.424Z,35.80
2023-03-31T11:55:39.413Z,34.08
2023-03-31T12:00:47.997Z,34.40
2023-03-31T12:05:54.616Z,34.33
2023-03-31T12:11:03.596Z,34.67
2023-03-31T12:16:12.957Z,34.17
2023-03-31T12:21:16.446Z,34.35
2023-03-31T12:26:36.149Z,34.05
2023-03-31T12:31:44.092Z,33.65
2023-03-31T12:36:58.962Z,33.85
2023-03-31T12:42:40.764Z,34.45
2023-03-31T12:48:05.536Z,34.63
2023-03-31T12:53:22.591Z,34.28
2023-03-31T12:58:45.891Z,34.40
2023-03-31T13:04:11.137Z,33.75
2023-03-31T13:09:42.963Z,33.92
2023-03-31T13:14:48.427Z,33.85
2023-03-31T13:19:53.478Z,33.58
2023-03-31T13:25:28.241Z,33.50
2023-03-31T13:30:49.333Z,33.53
2023-03-31T13:36:00.311Z,33.65
2023-03-31T13:41:26.404Z,34.72
2023-03-31T13:47:08.432Z,33.45
2023-03-31T13:52:13.280Z,33.33
2023-03-31T13:58:03.202Z,33.83
2023-03-31T14:03:19.015Z,34.00
2023-03-31T14:08:35.603Z,33.63
2023-03-31T14:13:38.463Z,34.17
2023-03-31T14:18:51.322Z,33.90
2023-03-31T14:24:06.011Z,34.22
2023-03-31T14:29:15.257Z,34.25
2023-03-31T14:34:42.327Z,34.20
2023-03-31T14:39:48.349Z,34.10
2023-03-31T14:44:57.112Z,34.17
2023-03-31T14:50:02.625Z,33.72
2023-03-31T14:55:08.074Z,33.55
2023-03-31T15:00:25.444Z,33.75
2023-03-31T15:05:31.036Z,33.95
2023-03-31T15:10:39.832Z,33.63
2023-03-31T15:15:44.270Z,35.05
2023-03-31T15:20:47.781Z,33.95
2023-03-31T15:25:54.838Z,34.67
2023-03-31T15:31:09.642Z,34.20
2023-03-31T15:36:14.045Z,34.15
2023-03-31T15:41:18.820Z,33.65
2023-03-31T15:46:27.383Z,34.55
2023-03-31T15:51:35.361Z,34.60
2023-03-31T15:56:44.735Z,34.63
2023-03-31T16:01:47.979Z,36.20
2023-03-31T16:06:56.460Z,34.08
2023-03-31T16:12:06.010Z,33.70
2023-03-31T16:17:13.200Z,33.33
2023-03-31T16:22:21.928Z,33.78
2023-03-31T16:27:26.267Z,33.75
2023-03-31T16:32:29.245Z,34.00
2023-03-31T16:37:32.515Z,33.72
2023-03-31T16:42:36.754Z,33.58
2023-03-31T16:47:41.580Z,33.75
2023-03-31T16:52:47.223Z,33.95
2023-03-31T16:57:51.487Z,34.28
2023-03-31T17:02:54.807Z,33.75
2023-03-31T17:07:57.923Z,35.50
2023-03-31T17:13:03.317Z,33.67
2023-03-31T17:18:07.181Z,34.15
2023-03-31T17:23:10.343Z,34.03
2023-03-31T17:28:14.595Z,33.58
2023-03-31T17:33:18.476Z,33.65
2023-03-31T17:38:22.545Z,34.88
2023-03-31T17:43:27.469Z,33.70
2023-03-31T17:48:30.666Z,34.25
2023-03-31T17:53:33.553Z,33.88
2023-03-31T17:58:38.146Z,34.22
2023-03-31T18:03:41.386Z,33.63
2023-03-31T18:08:44.325Z,34.72
2023-03-31T18:13:48.854Z,33.75
2023-03-31T18:18:51.962Z,34.40
2023-03-31T18:23:57.095Z,34.20
2023-03-31T18:29:01.351Z,34.42
2023-03-31T18:34:04.264Z,33.70
2023-03-31T18:39:07.208Z,34.05
2023-03-31T18:44:11.437Z,34.85
2023-03-31T18:49:15.332Z,34.92
2023-03-31T18:54:22.658Z,33.92
2023-03-31T18:59:26.916Z,34.60
2023-03-31T19:04:30.171Z,33.70
2023-03-31T19:09:33.075Z,34.45
2023-03-31T19:14:37.629Z,35.13
2023-03-31T19:19:40.996Z,34.15
2023-03-31T19:24:45.031Z,34.00
2023-03-31T19:29:49.470Z,34.58
2023-03-31T19:34:52.760Z,33.92
2023-03-31T19:39:55.715Z,35.47
2023-03-31T19:44:59.949Z,34.25
2023-03-31T19:50:02.991Z,34.08
2023-03-31T19:55:15.490Z,34.10
2023-03-31T20:00:20.993Z,33.95
2023-03-31T20:05:23.910Z,33.42
2023-03-31T20:10:27.207Z,33.80
2023-03-31T20:15:32.543Z,33.92
2023-03-31T20:20:35.523Z,34.30
2023-03-31T20:25:38.616Z,33.97
2023-03-31T20:30:42.882Z,33.63
2023-03-31T20:35:46.954Z,33.55
2023-03-31T20:40:49.879Z,33.22
2023-03-31T20:46:02.963Z,34.08
2023-03-31T20:51:07.567Z,33.30
2023-03-31T20:56:12.087Z,33.70
2023-03-31T21:01:17.697Z,33.42
2023-03-31T21:06:21.116Z,33.75
2023-03-31T21:11:26.518Z,33.53
2023-03-31T21:16:30.784Z,33.92
2023-03-31T21:21:35.255Z,33.60
2023-03-31T21:26:38.162Z,33.88
2023-03-31T21:31:44.796Z,33.83
2023-03-31T21:36:50.029Z,33.80
2023-03-31T21:41:52.908Z,33.58
2023-03-31T21:46:57.222Z,34.22
2023-03-31T21:52:00.116Z,33.30
2023-03-31T21:57:03.106Z,33.85
2023-03-31T22:02:07.452Z,34.13
2023-03-31T22:07:10.591Z,33.30
2023-03-31T22:12:13.930Z,33.38
2023-03-31T22:17:18.171Z,33.78
2023-03-31T22:22:21.640Z,33.92
2023-03-31T22:27:24.523Z,33.33
2023-03-31T22:32:28.788Z,33.45
2023-03-31T22:37:31.726Z,33.63
2023-03-31T22:42:34.743Z,33.42
2023-03-31T22:47:39.092Z,33.55
2023-03-31T22:52:42.019Z,33.90
2023-03-31T22:57:45.924Z,33.40
2023-03-31T23:02:50.144Z,33.35
2023-03-31T23:07:53.018Z,34.47
2023-03-31T23:12:55.893Z,33.63
2023-03-31T23:18:00.202Z,33.80
2023-03-31T23:23:03.679Z,33.63
2023-03-31T23:28:07.432Z,33.63
2023-03-31T23:33:11.600Z,33.38
2023-03-31T23:38:14.462Z,33.47
2023-03-31T23:43:17.465Z,33.15
2023-03-31T23:48:22.136Z,33.08
2023-03-31T23:53:24.982Z,33.22
2023-03-31T23:58:28.328Z,32.97
